Time;durP1;ratioP1;P1;durP2;ratioP2;P2;SDS_P1;SDS_P2;PMS_P1;PMS_P2;Temp;Humidity;BMP_temperature;BMP_pressure;BME280_temperature;BME280_humidity;BME280_pressure;Samples;Min_cycle;Max_cycle;Signal;HPM_P1;HPM_P2
2022/11/14 00:00:52;;;;;;;12.70;11.40;;;9.30;99.90;;;;;;5012064;28;20231;-72
2022/11/14 00:03:19;;;;;;;12.27;11.18;;;9.30;99.90;;;;;;5011405;28;20232;-72
2022/11/14 00:05:47;;;;;;;14.27;12.77;;;9.30;99.90;;;;;;5007394;28;20196;-72
2022/11/14 00:08:19;;;;;;;14.50;13.07;;;9.30;99.90;;;;;;5012163;28;20223;-72
2022/11/14 00:10:47;;;;;;;14.20;12.85;;;9.20;99.90;;;;;;5011084;28;20581;-72
2022/11/14 00:13:15;;;;;;;15.65;14.15;;;9.20;99.90;;;;;;5009008;28;20220;-72
2022/11/14 00:15:42;;;;;;;14.50;13.15;;;9.20;99.90;;;;;;5010843;28;20212;-72
2022/11/14 00:18:10;;;;;;;13.38;12.10;;;9.20;99.90;;;;;;5000806;28;20227;-72
2022/11/14 00:20:37;;;;;;;13.27;12.00;;;9.10;99.90;;;;;;5011178;28;20720;-72
2022/11/14 00:23:05;;;;;;;12.15;10.93;;;9.10;99.90;;;;;;5012490;28;20302;-71
2022/11/14 00:25:33;;;;;;;11.68;10.57;;;9.10;99.90;;;;;;5008189;28;20192;-72
2022/11/14 00:28:02;;;;;;;10.63;9.63;;;9.10;99.90;;;;;;5008991;28;20683;-72
2022/11/14 00:30:29;;;;;;;12.93;11.63;;;9.20;99.90;;;;;;5011366;28;20220;-72
2022/11/14 00:32:56;;;;;;;11.70;10.57;;;9.20;99.90;;;;;;5010654;28;20669;-72
2022/11/14 00:35:23;;;;;;;10.45;9.45;;;9.20;99.90;;;;;;5006435;28;20197;-71
2022/11/14 00:37:51;;;;;;;10.90;9.80;;;9.30;99.90;;;;;;5006982;28;20221;-71
2022/11/14 00:40:18;;;;;;;11.10;10.10;;;9.30;99.90;;;;;;5010371;28;20219;-71
2022/11/14 00:42:46;;;;;;;10.70;9.70;;;9.30;99.90;;;;;;5004822;28;20235;-71
2022/11/14 00:45:13;;;;;;;11.68;10.57;;;9.30;99.90;;;;;;5008610;28;20670;-71
2022/11/14 00:47:41;;;;;;;12.27;11.13;;;9.30;99.90;;;;;;5004242;28;20302;-71
2022/11/14 00:50:09;;;;;;;14.38;12.98;;;9.20;99.90;;;;;;5009428;28;20212;-71
2022/11/14 00:52:37;;;;;;;12.20;11.10;;;9.10;99.90;;;;;;5003667;28;20209;-71
2022/11/14 00:55:06;;;;;;;8.77;8.07;;;9.10;99.90;;;;;;5010838;28;20227;-71
2022/11/14 00:57:33;;;;;;;10.77;9.88;;;9.10;99.90;;;;;;5010114;28;20220;-71
2022/11/14 01:00:02;;;;;;;10.48;9.48;;;9.10;99.90;;;;;;5005766;28;20224;-71
2022/11/14 01:02:29;;;;;;;11.05;10.05;;;9.20;99.90;;;;;;4986265;28;20223;-71
2022/11/14 01:04:56;;;;;;;11.52;10.45;;;9.20;99.90;;;;;;5004252;28;20204;-72
2022/11/14 01:07:23;;;;;;;10.57;9.57;;;9.10;99.90;;;;;;5009342;28;20228;-71
2022/11/14 01:09:50;;;;;;;11.05;10.05;;;9.10;99.90;;;;;;5006360;28;20212;-71
2022/11/14 01:12:18;;;;;;;15.73;14.13;;;9.10;99.90;;;;;;5005595;28;20216;-71
2022/11/14 01:14:45;;;;;;;15.60;14.10;;;9.10;99.90;;;;;;5007492;28;20741;-71
2022/11/14 01:17:14;;;;;;;16.92;15.32;;;9.00;99.90;;;;;;5007026;28;20622;-71
2022/11/14 01:19:41;;;;;;;16.52;14.93;;;8.90;99.90;;;;;;5004583;28;20216;-71
2022/11/14 01:22:09;;;;;;;18.50;16.63;;;8.80;99.90;;;;;;5005710;28;20228;-71
2022/11/14 01:24:36;;;;;;;14.25;12.85;;;8.70;99.90;;;;;;5008608;28;20196;-72
2022/11/14 01:27:03;;;;;;;13.15;11.95;;;8.70;99.90;;;;;;5006211;28;20224;-71
2022/11/14 01:29:31;;;;;;;11.65;10.48;;;8.80;99.90;;;;;;4993576;28;20220;-72
2022/11/14 01:31:58;;;;;;;11.88;10.77;;;8.90;99.90;;;;;;5003946;28;20601;-72
2022/11/14 01:34:28;;;;;;;10.88;9.98;;;9.00;99.90;;;;;;5006233;28;20207;-72
2022/11/14 01:36:55;;;;;;;10.55;9.45;;;9.10;99.90;;;;;;5006577;28;20216;-72
2022/11/14 01:39:23;;;;;;;9.25;8.45;;;9.20;99.90;;;;;;5010373;28;20235;-71
2022/11/14 01:41:50;;;;;;;9.25;8.45;;;9.20;99.90;;;;;;5004855;28;20215;-72
2022/11/14 01:44:47;;;;;;;10.95;9.90;;;9.20;99.90;;;;;;5007592;28;20256;-71
2022/11/14 01:47:18;;;;;;;9.38;8.57;;;9.20;99.90;;;;;;5005546;28;20219;-72
2022/11/14 01:49:50;;;;;;;10.65;9.75;;;9.20;99.90;;;;;;5007508;28;20227;-71
2022/11/14 01:52:21;;;;;;;9.27;8.48;;;9.20;99.90;;;;;;5007560;28;20302;-72
2022/11/14 01:54:51;;;;;;;11.68;10.50;;;9.20;99.90;;;;;;5008370;28;20192;-72
2022/11/14 01:57:21;;;;;;;11.52;10.43;;;9.20;99.90;;;;;;5004016;28;20220;-72
2022/11/14 01:59:52;;;;;;;12.57;11.38;;;9.20;99.90;;;;;;5009041;28;20216;-72
2022/11/14 02:02:23;;;;;;;13.27;12.07;;;9.10;99.90;;;;;;5007386;28;20599;-72
2022/11/14 02:04:57;;;;;;;13.27;12.07;;;9.00;99.90;;;;;;5022449;28;20197;-72
2022/11/14 02:07:27;;;;;;;12.68;11.38;;;8.80;99.90;;;;;;5014245;28;20227;-72
2022/11/14 02:09:55;;;;;;;11.88;10.73;;;8.80;99.90;;;;;;5004905;28;20308;-72
2022/11/14 02:12:23;;;;;;;11.13;10.10;;;8.80;99.90;;;;;;5006090;28;20219;-72
2022/11/14 02:14:54;;;;;;;10.88;9.88;;;8.90;99.90;;;;;;5010289;28;20203;-72
2022/11/14 02:17:22;;;;;;;11.07;9.98;;;8.90;99.90;;;;;;5004537;28;20220;-72
2022/11/14 02:19:54;;;;;;;10.60;9.70;;;8.90;99.90;;;;;;5004406;28;20213;-71
2022/11/14 02:22:23;;;;;;;11.20;10.10;;;9.00;99.90;;;;;;5006966;28;20282;-71
2022/11/14 02:24:50;;;;;;;11.35;10.35;;;9.00;99.90;;;;;;5007520;28;20196;-71
2022/11/14 02:27:19;;;;;;;11.40;10.30;;;9.00;99.90;;;;;;5003641;28;20778;-72
2022/11/14 02:29:46;;;;;;;10.23;9.32;;;9.00;99.90;;;;;;5006993;28;20228;-72
2022/11/14 02:32:14;;;;;;;9.18;8.38;;;9.00;99.90;;;;;;5005584;28;20270;-72
2022/11/14 02:34:41;;;;;;;7.95;7.15;;;9.00;99.90;;;;;;5006731;28;20539;-71
2022/11/14 02:37:08;;;;;;;11.60;10.57;;;9.10;99.90;;;;;;5002106;28;20220;-73
2022/11/14 02:39:37;;;;;;;12.52;11.30;;;9.00;99.90;;;;;;5007309;28;20220;-73
2022/11/14 02:42:05;;;;;;;12.32;11.18;;;8.90;99.90;;;;;;5006392;28;20216;-73
2022/11/14 02:44:32;;;;;;;12.30;11.20;;;8.90;99.90;;;;;;5005926;28;20262;-73
2022/11/14 02:46:59;;;;;;;12.23;11.13;;;8.90;99.90;;;;;;5006373;28;20228;-71
2022/11/14 02:49:27;;;;;;;10.85;9.85;;;8.80;99.90;;;;;;5008938;28;20224;-71
2022/11/14 02:51:54;;;;;;;10.45;9.32;;;8.80;99.90;;;;;;5006432;28;20220;-71
2022/11/14 02:54:21;;;;;;;11.27;10.18;;;8.90;99.90;;;;;;5004701;28;20192;-70
2022/11/14 02:56:50;;;;;;;10.38;9.38;;;8.90;99.90;;;;;;5008293;28;20251;-71
2022/11/14 02:59:18;;;;;;;10.02;9.13;;;8.90;99.90;;;;;;5007173;28;20220;-72
2022/11/14 03:01:45;;;;;;;10.20;9.30;;;8.90;99.90;;;;;;5006762;28;20197;-72
2022/11/14 03:04:12;;;;;;;13.00;11.70;;;9.00;99.90;;;;;;5006448;28;20213;-72
2022/11/14 03:06:40;;;;;;;11.48;10.43;;;9.00;99.90;;;;;;5000581;28;20248;-72
2022/11/14 03:09:07;;;;;;;12.40;11.18;;;8.90;99.90;;;;;;5004894;28;20231;-72
2022/11/14 03:11:34;;;;;;;13.52;12.20;;;9.00;99.90;;;;;;5005694;28;20251;-72
2022/11/14 03:14:03;;;;;;;13.38;12.15;;;8.90;99.90;;;;;;5005645;28;20226;-72
2022/11/14 03:16:30;;;;;;;12.55;11.45;;;8.90;99.90;;;;;;5003108;28;20204;-72
2022/11/14 03:18:57;;;;;;;11.73;10.63;;;8.80;99.90;;;;;;5006315;28;20708;-72
2022/11/14 03:21:25;;;;;;;11.98;10.88;;;8.90;99.90;;;;;;4988559;28;20228;-72
2022/11/14 03:23:52;;;;;;;11.77;10.70;;;8.80;99.90;;;;;;5006630;28;20242;-72
2022/11/14 03:26:19;;;;;;;10.20;9.30;;;8.90;99.90;;;;;;5005333;28;20196;-71
2022/11/14 03:28:46;;;;;;;10.90;9.90;;;8.90;99.90;;;;;;5004525;28;20227;-72
2022/11/14 03:31:15;;;;;;;9.98;9.07;;;8.90;99.90;;;;;;5008663;28;20677;-72
2022/11/14 03:33:42;;;;;;;11.32;10.32;;;8.90;99.90;;;;;;5003977;28;20299;-72
2022/11/14 03:36:10;;;;;;;10.40;9.50;;;8.90;99.90;;;;;;4983283;28;20647;-72
2022/11/14 03:38:37;;;;;;;10.70;9.70;;;8.80;99.90;;;;;;5005506;28;20224;-72
2022/11/14 03:41:05;;;;;;;10.02;9.18;;;8.70;99.90;;;;;;5008646;28;20239;-72
2022/11/14 03:43:34;;;;;;;10.35;9.45;;;8.60;99.90;;;;;;4991267;28;20221;-72
2022/11/14 03:46:02;;;;;;;9.82;8.90;;;8.60;99.90;;;;;;5006408;28;20223;-71
2022/11/14 03:48:31;;;;;;;9.10;8.30;;;8.60;99.90;;;;;;4987629;28;20228;-71
2022/11/14 03:50:58;;;;;;;8.90;8.10;;;8.60;99.90;;;;;;5004745;28;20228;-71
2022/11/14 03:53:27;;;;;;;10.68;9.68;;;8.50;99.90;;;;;;4990432;28;20212;-71
2022/11/14 03:55:55;;;;;;;11.07;10.07;;;8.50;99.90;;;;;;5008720;28;20219;-71
2022/11/14 03:58:22;;;;;;;12.65;11.18;;;8.40;99.90;;;;;;5004779;28;20224;-71
2022/11/14 04:00:49;;;;;;;60.83;14.82;;;8.40;99.90;;;;;;5007818;28;20776;-71
2022/11/14 04:03:17;;;;;;;13.48;12.23;;;8.40;99.90;;;;;;5008168;28;20216;-71
2022/11/14 04:05:46;;;;;;;18.40;11.50;;;8.40;99.90;;;;;;5009129;28;20207;-71
2022/11/14 04:08:13;;;;;;;12.32;11.13;;;8.40;99.90;;;;;;5010817;28;20212;-71
2022/11/14 04:10:41;;;;;;;11.32;10.32;;;8.50;99.90;;;;;;5008914;28;20576;-71
2022/11/14 04:13:08;;;;;;;11.88;10.77;;;8.50;99.90;;;;;;5008929;28;20244;-72
2022/11/14 04:15:36;;;;;;;13.10;11.88;;;8.50;99.90;;;;;;5007669;28;20204;-72
2022/11/14 04:18:04;;;;;;;12.63;11.45;;;8.40;99.90;;;;;;5010026;28;20224;-72
2022/11/14 04:20:31;;;;;;;11.45;10.45;;;8.40;99.90;;;;;;5011768;28;20223;-72
2022/11/14 04:22:59;;;;;;;10.65;9.65;;;8.40;99.90;;;;;;5008388;28;20227;-72
2022/11/14 04:25:26;;;;;;;11.77;10.63;;;8.40;99.90;;;;;;5003756;28;20212;-72
2022/11/14 04:27:54;;;;;;;10.30;9.40;;;8.40;99.90;;;;;;5008275;28;20227;-71
2022/11/14 04:30:21;;;;;;;9.27;8.48;;;8.40;99.90;;;;;;5008615;28;20220;-71
2022/11/14 04:32:48;;;;;;;10.13;9.23;;;8.40;99.90;;;;;;5010285;28;20220;-71
2022/11/14 04:35:16;;;;;;;9.38;8.48;;;8.50;99.90;;;;;;5007703;28;20203;-71
2022/11/14 04:37:43;;;;;;;10.75;9.77;;;8.50;99.90;;;;;;5009772;28;20223;-71
2022/11/14 04:40:12;;;;;;;10.35;9.35;;;8.50;99.90;;;;;;5011730;28;20224;-71
2022/11/14 04:42:40;;;;;;;10.25;9.35;;;8.50;99.90;;;;;;5008212;28;20216;-71
2022/11/14 04:45:08;;;;;;;9.98;9.07;;;8.50;99.90;;;;;;5005652;28;20736;-72
2022/11/14 04:47:36;;;;;;;8.73;7.93;;;8.40;99.90;;;;;;5007013;28;20224;-71
2022/11/14 04:50:03;;;;;;;10.45;9.45;;;8.40;99.90;;;;;;5007680;28;20239;-71
2022/11/14 04:52:31;;;;;;;11.15;10.15;;;8.40;99.90;;;;;;5010312;28;20224;-72
2022/11/14 04:54:58;;;;;;;10.02;9.13;;;8.40;99.90;;;;;;5008769;28;20674;-72
2022/11/14 04:57:27;;;;;;;9.93;8.93;;;8.40;99.90;;;;;;5007263;28;20266;-72
2022/11/14 04:59:54;;;;;;;9.68;8.77;;;8.40;99.90;;;;;;5008338;28;20216;-71
2022/11/14 05:02:22;;;;;;;9.43;8.63;;;8.40;99.90;;;;;;5006272;28;20231;-72
2022/11/14 05:04:49;;;;;;;11.27;8.88;;;8.40;99.90;;;;;;5006075;28;20220;-72
2022/11/14 05:07:16;;;;;;;9.50;8.70;;;8.40;99.90;;;;;;5007292;28;20238;-72
2022/11/14 05:09:43;;;;;;;10.10;9.20;;;8.40;99.90;;;;;;5006541;28;20216;-73
2022/11/14 05:12:11;;;;;;;13.68;10.30;;;8.50;99.90;;;;;;5009146;28;20282;-73
2022/11/14 05:14:40;;;;;;;11.90;10.80;;;8.50;99.90;;;;;;5006425;28;20235;-72
2022/11/14 05:17:07;;;;;;;11.27;10.20;;;8.40;99.90;;;;;;5005636;28;20216;-72
2022/11/14 05:19:34;;;;;;;11.10;10.07;;;8.50;99.90;;;;;;5002136;28;20223;-73
2022/11/14 05:22:01;;;;;;;10.43;9.43;;;8.50;99.90;;;;;;5005351;28;20285;-72
2022/11/14 05:24:30;;;;;;;11.20;10.10;;;8.50;99.90;;;;;;5006639;28;20220;-72
2022/11/14 05:26:58;;;;;;;11.82;10.73;;;8.50;99.90;;;;;;5006323;28;20220;-73
2022/11/14 05:29:26;;;;;;;11.63;10.52;;;8.50;99.90;;;;;;5004797;28;20216;-73
2022/11/14 05:31:56;;;;;;;11.18;10.07;;;8.50;99.90;;;;;;5004717;28;20235;-73
2022/11/14 05:34:24;;;;;;;10.80;9.80;;;8.50;99.90;;;;;;5005891;28;20207;-73
2022/11/14 05:36:51;;;;;;;10.43;9.43;;;8.50;99.90;;;;;;5008401;28;20235;-73
2022/11/14 05:39:18;;;;;;;9.77;8.88;;;8.50;99.90;;;;;;5006460;28;20220;-73
2022/11/14 05:41:46;;;;;;;10.95;9.95;;;8.50;99.90;;;;;;5007028;28;20224;-73
2022/11/14 05:44:13;;;;;;;11.35;10.30;;;8.50;99.90;;;;;;5005428;28;20215;-73
2022/11/14 05:46:40;;;;;;;10.27;9.38;;;8.40;99.90;;;;;;5004082;28;20215;-73
2022/11/14 05:49:09;;;;;;;10.95;9.95;;;8.40;99.90;;;;;;5007361;28;20232;-72
2022/11/14 05:51:36;;;;;;;11.70;10.60;;;8.40;99.90;;;;;;5007356;28;20196;-73
2022/11/14 05:54:03;;;;;;;11.57;10.48;;;8.40;99.90;;;;;;5004964;28;20246;-73
2022/11/14 05:56:30;;;;;;;14.35;13.00;;;8.40;99.90;;;;;;5006038;28;20207;-75
2022/11/14 05:58:58;;;;;;;11.82;10.73;;;8.40;99.90;;;;;;5008047;28;20235;-73
2022/11/14 06:01:26;;;;;;;11.93;10.82;;;8.30;99.90;;;;;;5006938;28;20196;-73
2022/11/14 06:03:54;;;;;;;12.43;11.23;;;8.30;99.90;;;;;;5003981;28;20223;-73
2022/11/14 06:06:22;;;;;;;11.63;10.52;;;8.30;99.90;;;;;;5006581;28;20200;-73
2022/11/14 06:08:50;;;;;;;10.02;9.13;;;8.30;99.90;;;;;;4986340;28;20220;-73
2022/11/14 06:11:19;;;;;;;10.45;9.45;;;8.40;99.90;;;;;;5001690;28;20197;-73
2022/11/14 06:13:46;;;;;;;11.23;10.23;;;8.40;99.90;;;;;;5005203;28;20216;-72
2022/11/14 06:16:16;;;;;;;12.23;11.02;;;8.40;99.90;;;;;;5006156;28;20247;-72
2022/11/14 06:18:43;;;;;;;11.75;10.65;;;8.30;99.90;;;;;;5003074;28;20229;-72
2022/11/14 06:21:12;;;;;;;10.60;9.60;;;8.30;99.90;;;;;;5000353;28;20196;-72
2022/11/14 06:23:41;;;;;;;12.95;11.65;;;8.30;99.90;;;;;;5004460;28;20233;-72
2022/11/14 06:26:14;;;;;;;12.68;11.48;;;8.30;99.90;;;;;;4984130;28;20197;-72
2022/11/14 06:28:42;;;;;;;11.07;9.93;;;8.40;99.90;;;;;;5002620;28;20220;-72
2022/11/14 06:31:09;;;;;;;11.70;10.63;;;8.40;99.90;;;;;;5002498;28;20200;-72
2022/11/14 06:33:37;;;;;;;10.55;9.55;;;8.40;99.90;;;;;;4989030;28;20212;-73
2022/11/14 06:36:07;;;;;;;9.23;8.38;;;8.50;99.90;;;;;;4990845;28;20292;-72
2022/11/14 06:38:35;;;;;;;9.00;8.20;;;8.50;99.90;;;;;;5005397;28;20220;-73
2022/11/14 06:41:05;;;;;;;9.10;8.27;;;8.50;99.90;;;;;;5015873;28;20255;-73
2022/11/14 06:43:36;;;;;;;9.07;8.27;;;8.50;99.90;;;;;;5013342;28;20223;-73
2022/11/14 06:46:04;;;;;;;8.98;8.18;;;8.60;99.90;;;;;;5003561;28;20196;-73
2022/11/14 06:48:32;;;;;;;9.80;8.88;;;8.50;99.90;;;;;;5000669;28;20224;-73
2022/11/14 06:51:01;;;;;;;10.05;9.13;;;8.60;99.90;;;;;;5002709;28;20220;-72
2022/11/14 06:53:29;;;;;;;10.55;9.65;;;8.60;99.90;;;;;;5000388;28;20239;-72
2022/11/14 06:55:58;;;;;;;9.48;8.60;;;8.60;99.90;;;;;;4997394;28;20576;-72
2022/11/14 06:58:32;;;;;;;8.73;8.02;;;8.60;99.90;;;;;;5004509;28;20806;-72
2022/11/14 07:01:03;;;;;;;10.07;9.07;;;8.60;99.90;;;;;;4999958;28;20223;-73
2022/11/14 07:03:31;;;;;;;8.15;7.45;;;8.50;99.90;;;;;;5002364;28;20239;-72
2022/11/14 07:05:58;;;;;;;9.10;8.30;;;8.60;99.90;;;;;;5000646;28;20208;-73
2022/11/14 07:08:25;;;;;;;8.20;7.50;;;8.60;99.90;;;;;;5002542;28;20223;-72
2022/11/14 07:10:53;;;;;;;8.77;8.02;;;8.60;99.90;;;;;;5001593;28;20928;-72
2022/11/14 07:13:20;;;;;;;8.25;7.55;;;8.60;99.90;;;;;;5004468;28;20231;-72
2022/11/14 07:15:53;;;;;;;8.75;7.97;;;8.60;99.90;;;;;;4997656;28;20610;-72
2022/11/14 07:18:20;;;;;;;8.95;8.18;;;8.60;99.90;;;;;;4998750;28;20227;-72
2022/11/14 07:20:48;;;;;;;9.40;8.45;;;8.60;99.90;;;;;;5003377;28;20228;-72
2022/11/14 07:23:15;;;;;;;10.07;9.07;;;8.60;99.90;;;;;;5002992;28;20412;-72
2022/11/14 07:25:42;;;;;;;10.50;9.48;;;8.70;99.90;;;;;;4999302;28;20219;-72
2022/11/14 07:28:10;;;;;;;9.20;8.40;;;8.70;99.90;;;;;;4995242;28;20236;-72
2022/11/14 07:30:37;;;;;;;9.02;8.18;;;8.70;99.90;;;;;;4984821;28;20220;-73
2022/11/14 07:33:06;;;;;;;10.48;9.52;;;8.70;99.90;;;;;;5000437;28;20309;-73
2022/11/14 07:35:33;;;;;;;9.10;8.30;;;8.70;99.90;;;;;;5005811;28;20241;-73
2022/11/14 07:38:04;;;;;;;9.10;8.30;;;8.80;99.90;;;;;;5006454;28;20251;-74
2022/11/14 07:40:32;;;;;;;10.32;9.38;;;8.90;99.90;;;;;;4983234;28;20220;-74
2022/11/14 07:43:00;;;;;;;8.90;8.10;;;9.00;99.90;;;;;;5006315;28;20216;-74
2022/11/14 07:45:28;;;;;;;13.05;10.88;;;9.10;99.90;;;;;;5005365;28;20212;-74
2022/11/14 07:47:56;;;;;;;9.75;8.77;;;9.10;99.90;;;;;;5005522;28;20220;-74
2022/11/14 07:50:26;;;;;;;16.90;13.18;;;9.20;99.90;;;;;;5002587;28;20243;-74
2022/11/14 07:52:54;;;;;;;20.17;14.48;;;9.20;99.90;;;;;;5003899;28;20262;-74
2022/11/14 07:55:22;;;;;;;16.33;13.73;;;9.30;99.90;;;;;;5006495;28;20188;-74
2022/11/14 07:57:53;;;;;;;13.38;11.98;;;9.30;99.90;;;;;;5003236;28;20224;-74
2022/11/14 08:00:20;;;;;;;15.20;12.38;;;9.40;99.90;;;;;;5002959;28;20250;-74
2022/11/14 08:02:48;;;;;;;12.73;11.43;;;9.40;99.90;;;;;;5007179;28;20231;-72
2022/11/14 08:05:16;;;;;;;11.73;10.52;;;9.40;99.90;;;;;;5005924;28;20224;-72
2022/11/14 08:07:45;;;;;;;12.70;11.45;;;9.40;99.90;;;;;;5001942;28;20227;-73
2022/11/14 08:10:13;;;;;;;11.13;10.13;;;9.30;99.90;;;;;;5005532;28;20689;-72
2022/11/14 08:12:41;;;;;;;10.68;9.77;;;9.30;99.90;;;;;;5000832;28;20227;-72
2022/11/14 08:15:10;;;;;;;10.23;9.32;;;9.30;99.90;;;;;;5004324;28;20749;-73
2022/11/14 08:17:37;;;;;;;11.10;10.10;;;9.30;99.90;;;;;;5001898;28;20219;-73
2022/11/14 08:20:06;;;;;;;9.93;8.93;;;9.30;99.90;;;;;;5002509;28;20247;-73
2022/11/14 08:22:34;;;;;;;9.23;8.43;;;9.30;99.90;;;;;;5005337;28;20231;-74
2022/11/14 08:25:02;;;;;;;9.63;8.73;;;9.30;99.90;;;;;;5004349;28;20944;-73
2022/11/14 08:27:30;;;;;;;8.60;7.85;;;9.30;99.90;;;;;;5001934;28;20232;-73
2022/11/14 08:29:57;;;;;;;8.60;7.90;;;9.40;99.90;;;;;;5000320;28;20298;-74
2022/11/14 08:32:24;;;;;;;7.05;6.45;;;9.50;99.90;;;;;;5005515;28;20422;-73
2022/11/14 08:34:51;;;;;;;7.93;7.25;;;9.50;99.90;;;;;;5003321;28;20215;-74
2022/11/14 08:37:19;;;;;;;7.35;6.75;;;9.50;99.90;;;;;;5005962;28;20231;-73
2022/11/14 08:39:46;;;;;;;7.35;6.72;;;9.50;99.90;;;;;;5000113;28;20225;-74
2022/11/14 08:42:15;;;;;;;7.15;6.55;;;9.50;99.90;;;;;;5000365;28;20225;-74
2022/11/14 08:44:42;;;;;;;7.60;7.00;;;9.50;99.90;;;;;;5000840;28;20765;-73
2022/11/14 08:47:09;;;;;;;8.25;7.53;;;9.60;99.90;;;;;;5000029;28;20216;-74
2022/11/14 08:49:37;;;;;;;8.50;7.80;;;9.70;99.90;;;;;;5003941;28;20219;-74
2022/11/14 08:52:04;;;;;;;12.48;11.20;;;9.80;99.90;;;;;;5002594;28;20294;-73
2022/11/14 08:54:32;;;;;;;11.20;10.20;;;9.80;99.90;;;;;;5003468;28;20685;-72
2022/11/14 08:56:59;;;;;;;12.50;11.35;;;9.90;99.90;;;;;;5002037;28;20227;-73
2022/11/14 08:59:27;;;;;;;13.95;12.65;;;9.90;99.90;;;;;;5001258;28;20270;-73
2022/11/14 09:01:54;;;;;;;13.20;11.95;;;9.90;99.90;;;;;;5003316;28;20220;-73
2022/11/14 09:04:21;;;;;;;13.27;11.98;;;10.00;99.90;;;;;;5002691;28;20205;-73
2022/11/14 09:06:49;;;;;;;12.48;11.32;;;10.00;99.90;;;;;;5002188;28;20196;-73
2022/11/14 09:09:16;;;;;;;10.48;9.48;;;10.00;99.90;;;;;;4988808;28;20224;-73
2022/11/14 09:11:44;;;;;;;10.40;9.50;;;10.10;99.90;;;;;;5002636;28;20578;-73
2022/11/14 09:14:11;;;;;;;9.95;9.05;;;10.10;99.90;;;;;;5001044;28;20211;-73
2022/11/14 09:16:40;;;;;;;9.43;8.63;;;10.10;99.90;;;;;;5002332;28;20200;-74
2022/11/14 09:19:07;;;;;;;9.55;8.75;;;10.20;99.90;;;;;;5000801;28;20213;-73
2022/11/14 09:21:35;;;;;;;14.63;13.20;;;10.10;99.90;;;;;;5005338;28;20196;-73
2022/11/14 09:24:02;;;;;;;13.68;12.32;;;10.00;99.90;;;;;;4998196;28;20200;-73
2022/11/14 09:26:29;;;;;;;13.80;12.50;;;10.00;99.90;;;;;;4997277;28;20220;-74
2022/11/14 09:28:57;;;;;;;13.05;11.85;;;10.00;99.90;;;;;;5001832;28;20220;-74
2022/11/14 09:31:24;;;;;;;22.83;15.55;;;10.00;99.90;;;;;;4999750;28;20208;-74
2022/11/14 09:33:53;;;;;;;15.88;14.27;;;10.10;99.90;;;;;;5002777;28;20224;-72
2022/11/14 09:36:20;;;;;;;15.13;13.70;;;10.20;99.90;;;;;;4999030;28;20189;-73
2022/11/14 09:38:48;;;;;;;15.07;13.68;;;10.20;99.90;;;;;;5001187;28;20224;-73
2022/11/14 09:41:25;;;;;;;13.02;11.82;;;10.40;99.90;;;;;;5006018;28;20592;-74
2022/11/14 09:44:11;;;;;;;13.55;12.25;;;10.50;99.90;;;;;;4996611;28;20227;-73
2022/11/14 09:46:44;;;;;;;13.82;12.52;;;10.70;99.90;;;;;;4986836;28;20247;-74
2022/11/14 09:49:25;;;;;;;14.02;12.73;;;11.00;99.90;;;;;;4997924;28;20890;-73
2022/11/14 09:51:59;;;;;;;14.52;13.00;;;11.50;99.90;;;;;;4999129;28;20239;-73
2022/11/14 09:54:29;;;;;;;15.77;14.38;;;11.90;99.90;;;;;;4994821;28;20212;-73
2022/11/14 09:56:57;;;;;;;15.13;13.73;;;12.70;99.90;;;;;;5000420;28;20219;-74
2022/11/14 09:59:25;;;;;;;13.32;12.13;;;14.00;99.90;;;;;;5005382;28;20257;-73
2022/11/14 10:01:59;;;;;;;12.57;11.38;;;14.90;99.90;;;;;;5000914;28;20226;-74
2022/11/14 10:04:39;;;;;;;11.25;10.23;;;15.40;99.90;;;;;;5000304;28;20677;-73
2022/11/14 10:07:20;;;;;;;11.82;10.82;;;15.50;99.90;;;;;;4996352;28;20674;-74
2022/11/14 10:09:59;;;;;;;9.90;9.00;;;14.90;99.90;;;;;;5004689;28;20223;-73
2022/11/14 10:12:36;;;;;;;9.70;8.80;;;14.20;99.90;;;;;;4983563;28;20615;-74
2022/11/14 10:15:15;;;;;;;8.77;7.97;;;13.70;99.90;;;;;;5002711;28;20288;-73
2022/11/14 10:17:57;;;;;;;8.57;7.88;;;13.60;99.90;;;;;;4999187;28;20220;-73
2022/11/14 10:20:31;;;;;;;9.00;8.20;;;13.70;99.90;;;;;;4999415;28;20635;-73
2022/11/14 10:23:15;;;;;;;8.10;7.40;;;13.50;99.90;;;;;;4999813;28;20618;-73
2022/11/14 10:25:54;;;;;;;7.72;7.13;;;13.30;99.90;;;;;;4997982;28;20227;-73
2022/11/14 10:28:45;;;;;;;7.35;6.75;;;13.20;99.90;;;;;;5001958;28;20219;-72
2022/11/14 10:31:22;;;;;;;8.00;7.30;;;13.10;99.90;;;;;;4993971;28;20201;-72
2022/11/14 10:33:57;;;;;;;7.75;7.05;;;13.10;99.90;;;;;;5001392;28;20219;-71
2022/11/14 10:36:41;;;;;;;7.38;6.78;;;13.00;99.90;;;;;;5002725;28;20195;-71
2022/11/14 10:39:16;;;;;;;7.70;7.03;;;12.70;99.90;;;;;;5003605;28;20227;-72
2022/11/14 10:41:45;;;;;;;6.45;5.95;;;12.60;99.90;;;;;;5002418;28;20646;-72
2022/11/14 10:44:17;;;;;;;6.05;5.57;;;12.50;99.90;;;;;;4984807;28;20252;-72
2022/11/14 10:46:51;;;;;;;6.07;5.57;;;12.50;99.90;;;;;;5003112;28;20211;-71
2022/11/14 10:49:21;;;;;;;6.07;5.57;;;12.30;99.90;;;;;;5001133;28;20607;-71
2022/11/14 10:51:53;;;;;;;6.75;6.25;;;12.30;99.90;;;;;;5002381;28;20187;-72
2022/11/14 10:54:25;;;;;;;6.60;6.03;;;12.20;99.90;;;;;;5000424;28;20196;-72
2022/11/14 10:56:55;;;;;;;6.60;6.10;;;12.30;99.90;;;;;;4983722;28;20224;-72
2022/11/14 10:59:23;;;;;;;7.28;6.70;;;12.30;99.90;;;;;;5002340;28;21012;-73
2022/11/14 11:01:56;;;;;;;6.80;6.30;;;12.40;99.90;;;;;;5004899;28;20236;-71
2022/11/14 11:04:27;;;;;;;7.20;6.60;;;12.50;99.90;;;;;;5000592;28;20207;-71
2022/11/14 11:06:58;;;;;;;6.10;5.60;;;12.60;99.90;;;;;;5000529;28;20238;-72
2022/11/14 11:12:16;;;;;;;6.88;6.25;;;13.00;99.90;;;;;;5019277;28;20223;-72
2022/11/14 11:14:44;;;;;;;7.07;6.47;;;13.20;99.90;;;;;;5010468;28;20239;-72
2022/11/14 11:17:21;;;;;;;8.18;7.43;;;13.30;99.90;;;;;;5006032;28;20216;-74
2022/11/14 11:19:49;;;;;;;7.25;6.65;;;13.20;99.90;;;;;;5000483;28;20219;-72
2022/11/14 11:22:38;;;;;;;7.15;6.55;;;13.70;99.90;;;;;;5003771;28;20222;-72
2022/11/14 11:25:24;;;;;;;7.85;7.15;;;14.40;99.90;;;;;;5003973;28;20732;-72
2022/11/14 11:28:06;;;;;;;7.60;6.90;;;15.00;99.90;;;;;;5006041;28;20243;-72
2022/11/14 11:30:33;;;;;;;7.50;6.75;;;14.80;99.90;;;;;;5007864;28;20230;-71
2022/11/14 11:33:16;;;;;;;6.20;5.60;;;15.10;99.90;;;;;;5001827;28;20231;-71
2022/11/14 11:35:45;;;;;;;6.30;5.80;;;15.40;99.90;;;;;;4987289;28;20188;-71
2022/11/14 11:38:16;;;;;;;7.95;6.53;;;15.40;99.90;;;;;;5005504;28;20228;-71
2022/11/14 11:40:46;;;;;;;6.82;6.10;;;15.40;99.90;;;;;;4999211;28;20216;-71
2022/11/14 11:43:29;;;;;;;6.50;6.00;;;15.20;99.90;;;;;;5005077;28;20232;-71
2022/11/14 11:45:59;;;;;;;6.38;5.78;;;14.70;99.90;;;;;;5004836;28;20212;-71
2022/11/14 11:48:38;;;;;;;6.30;5.70;;;14.70;99.90;;;;;;5006729;28;20227;-71
2022/11/14 11:51:12;;;;;;;7.25;5.63;;;14.90;99.90;;;;;;5003113;28;20220;-72
2022/11/14 11:53:45;;;;;;;6.07;5.00;;;14.90;99.90;;;;;;4999564;28;20225;-71
2022/11/14 11:56:16;;;;;;;5.75;5.10;;;14.70;99.90;;;;;;5004784;28;20727;-72
2022/11/14 11:58:46;;;;;;;5.10;4.70;;;14.60;99.90;;;;;;5002022;28;20926;-72
2022/11/14 12:01:14;;;;;;;5.10;4.70;;;14.40;99.90;;;;;;5000803;28;20197;-72
2022/11/14 12:03:45;;;;;;;5.45;5.05;;;14.10;99.90;;;;;;4997049;28;20600;-71
2022/11/14 12:06:16;;;;;;;5.00;4.60;;;13.80;99.90;;;;;;5000521;28;20216;-72
2022/11/14 12:08:52;;;;;;;4.63;4.32;;;13.50;99.90;;;;;;5002036;28;20369;-72
2022/11/14 12:11:24;;;;;;;4.90;4.50;;;13.30;99.90;;;;;;5004434;28;20282;-72
2022/11/14 12:14:16;;;;;;;4.25;3.95;;;13.20;99.90;;;;;;5003151;28;20231;-72
2022/11/14 12:17:24;;;;;;;4.25;3.95;;;13.20;99.90;;;;;;5001902;28;20872;-72
2022/11/14 12:20:21;;;;;;;4.40;4.10;;;13.20;99.90;;;;;;4930294;28;20223;-72
2022/11/14 12:23:16;;;;;;;4.50;4.20;;;13.10;99.90;;;;;;5000737;28;20270;-72
2022/11/14 12:25:57;;;;;;;4.60;4.22;;;13.10;99.90;;;;;;5003110;28;20221;-71
2022/11/14 12:28:44;;;;;;;3.88;3.65;;;13.00;99.90;;;;;;4999134;28;20223;-71
2022/11/14 12:31:15;;;;;;;4.45;4.15;;;13.10;99.90;;;;;;4997856;28;20205;-72
2022/11/14 12:33:46;;;;;;;5.03;4.63;;;13.10;99.90;;;;;;4997008;28;20262;-72
2022/11/14 12:36:13;;;;;;;4.75;4.35;;;13.20;99.90;;;;;;5001032;28;20189;-71
2022/11/14 12:38:47;;;;;;;4.65;4.35;;;13.20;99.90;;;;;;4998063;28;20576;-71
2022/11/14 12:41:24;;;;;;;4.90;4.50;;;13.10;99.90;;;;;;4998179;28;20355;-71
2022/11/14 12:43:52;;;;;;;4.68;4.28;;;13.00;99.90;;;;;;5002766;28;20521;-71
2022/11/14 12:46:19;;;;;;;4.72;4.32;;;12.90;99.90;;;;;;5001133;28;20216;-72
2022/11/14 12:48:47;;;;;;;4.07;3.78;;;12.90;99.90;;;;;;4997816;28;20220;-72
2022/11/14 12:51:49;;;;;;;4.15;3.85;;;13.00;99.90;;;;;;5005388;28;20222;-72
2022/11/14 12:54:46;;;;;;;4.22;3.92;;;13.00;99.90;;;;;;4999284;28;20278;-72
2022/11/14 13:00:12;;;;;;;4.32;4.03;;;13.00;99.90;;;;;;4987657;28;20700;-72
2022/11/14 13:03:30;;;;;;;4.78;4.38;;;13.10;99.90;;;;;;4998224;28;20347;-71